KCKN/CKN METAR and TAF weather

Enter ICAO airport designator
Station Type Date Time Source
KCKN METAR 2019/04/21 21:55 UTC NOAA

KCKN 212155Z AUTO 15003KT 10SM CLR 17/05 A3003 RMK AO2


Station Type Date Time Source
KCKN Decoded METAR 2019/04/21 21:55 UTC NOAA

Crookston Municipal Field, MN, United States (KCKN) 47-51N 096-37W
Apr 21, 2019 - 05:55 PM EDT / 2019.04.21 2155 UTC
Wind: from the SSE (150 degrees) at 3 MPH (3 KT):0
Visibility: 10 mile(s):0
Sky conditions: clear
Temperature: 62 F (17 C)
Dew Point: 41 F (5 C)
Relative Humidity: 45%
Pressure (altimeter): 30.03 in. Hg (1016 hPa)
ob: KCKN 212155Z AUTO 15003KT 10SM CLR 17/05 A3003 RMK AO2
cycle: 22

Station Type Date Time Source
KCKN TAF UTC NOAA

Error!

Example: see airport list